sensor_id;sensor_type;location;lat;lon;timestamp;P1;durP1;ratioP1;P2;durP2;ratioP2
25870;SDS011;13689;48.590;7.752;2022-09-23T00:01:29;6.55;;;3.10;;
25870;SDS011;13689;48.590;7.752;2022-09-23T00:03:57;11.20;;;3.17;;
25870;SDS011;13689;48.590;7.752;2022-09-23T00:06:23;5.78;;;3.00;;
25870;SDS011;13689;48.590;7.752;2022-09-23T00:08:50;5.82;;;3.17;;
25870;SDS011;13689;48.590;7.752;2022-09-23T00:11:17;5.68;;;2.85;;
25870;SDS011;13689;48.590;7.752;2022-09-23T00:13:44;9.63;;;2.97;;
25870;SDS011;13689;48.590;7.752;2022-09-23T00:16:15;7.40;;;2.80;;
25870;SDS011;13689;48.590;7.752;2022-09-23T00:18:43;6.55;;;2.90;;
25870;SDS011;13689;48.590;7.752;2022-09-23T00:21:10;3.83;;;2.80;;
25870;SDS011;13689;48.590;7.752;2022-09-23T00:23:38;4.30;;;2.85;;
25870;SDS011;13689;48.590;7.752;2022-09-23T00:26:07;5.47;;;2.60;;
25870;SDS011;13689;48.590;7.752;2022-09-23T00:31:01;9.00;;;2.65;;
25870;SDS011;13689;48.590;7.752;2022-09-23T00:33:31;6.40;;;2.72;;
25870;SDS011;13689;48.590;7.752;2022-09-23T00:36:00;3.88;;;2.80;;
25870;SDS011;13689;48.590;7.752;2022-09-23T00:38:27;5.18;;;3.50;;
25870;SDS011;13689;48.590;7.752;2022-09-23T00:40:53;5.40;;;2.83;;
25870;SDS011;13689;48.590;7.752;2022-09-23T00:43:19;4.03;;;2.88;;
25870;SDS011;13689;48.590;7.752;2022-09-23T00:46:00;3.50;;;2.83;;
25870;SDS011;13689;48.590;7.752;2022-09-23T00:48:26;5.28;;;2.42;;
25870;SDS011;13689;48.590;7.752;2022-09-23T00:50:52;4.03;;;2.63;;
25870;SDS011;13689;48.590;7.752;2022-09-23T00:53:19;4.38;;;2.72;;
25870;SDS011;13689;48.590;7.752;2022-09-23T00:58:17;6.20;;;2.78;;
25870;SDS011;13689;48.590;7.752;2022-09-23T01:00:47;2.50;;;2.10;;
25870;SDS011;13689;48.590;7.752;2022-09-23T01:03:13;11.25;;;2.47;;
25870;SDS011;13689;48.590;7.752;2022-09-23T01:05:39;5.47;;;2.38;;
25870;SDS011;13689;48.590;7.752;2022-09-23T01:08:07;4.07;;;2.20;;
25870;SDS011;13689;48.590;7.752;2022-09-23T01:10:39;15.30;;;6.28;;
25870;SDS011;13689;48.590;7.752;2022-09-23T01:13:17;4.65;;;2.90;;
25870;SDS011;13689;48.590;7.752;2022-09-23T01:15:52;4.95;;;2.25;;
25870;SDS011;13689;48.590;7.752;2022-09-23T01:18:47;4.47;;;2.40;;
25870;SDS011;13689;48.590;7.752;2022-09-23T01:27:13;4.10;;;2.30;;
25870;SDS011;13689;48.590;7.752;2022-09-23T01:30:07;6.25;;;1.88;;
25870;SDS011;13689;48.590;7.752;2022-09-23T01:35:43;2.65;;;2.15;;
25870;SDS011;13689;48.590;7.752;2022-09-23T01:38:35;3.67;;;2.28;;
25870;SDS011;13689;48.590;7.752;2022-09-23T01:41:22;2.70;;;1.98;;
25870;SDS011;13689;48.590;7.752;2022-09-23T01:44:24;5.95;;;2.20;;
25870;SDS011;13689;48.590;7.752;2022-09-23T01:47:04;3.55;;;1.95;;
25870;SDS011;13689;48.590;7.752;2022-09-23T01:49:46;7.10;;;2.17;;
25870;SDS011;13689;48.590;7.752;2022-09-23T01:52:54;3.40;;;2.05;;
25870;SDS011;13689;48.590;7.752;2022-09-23T01:55:30;4.47;;;2.00;;
25870;SDS011;13689;48.590;7.752;2022-09-23T01:58:06;4.80;;;2.05;;
25870;SDS011;13689;48.590;7.752;2022-09-23T02:00:43;2.92;;;1.73;;
25870;SDS011;13689;48.590;7.752;2022-09-23T02:03:18;3.97;;;1.90;;
25870;SDS011;13689;48.590;7.752;2022-09-23T02:05:51;2.90;;;1.77;;
25870;SDS011;13689;48.590;7.752;2022-09-23T02:08:28;3.42;;;1.95;;
25870;SDS011;13689;48.590;7.752;2022-09-23T02:11:01;2.53;;;1.67;;
25870;SDS011;13689;48.590;7.752;2022-09-23T02:13:47;5.78;;;2.28;;
25870;SDS011;13689;48.590;7.752;2022-09-23T02:16:59;3.45;;;1.88;;
25870;SDS011;13689;48.590;7.752;2022-09-23T02:19:12;3.03;;;2.17;;
25870;SDS011;13689;48.590;7.752;2022-09-23T02:21:48;2.65;;;1.92;;
25870;SDS011;13689;48.590;7.752;2022-09-23T02:24:26;1.83;;;1.60;;
25870;SDS011;13689;48.590;7.752;2022-09-23T02:30:03;5.32;;;1.90;;
25870;SDS011;13689;48.590;7.752;2022-09-23T02:40:51;4.53;;;3.47;;
25870;SDS011;13689;48.590;7.752;2022-09-23T02:46:12;6.22;;;2.40;;
25870;SDS011;13689;48.590;7.752;2022-09-23T02:48:40;1.73;;;1.60;;
25870;SDS011;13689;48.590;7.752;2022-09-23T02:51:10;2.08;;;1.80;;
25870;SDS011;13689;48.590;7.752;2022-09-23T02:53:37;3.00;;;1.60;;
25870;SDS011;13689;48.590;7.752;2022-09-23T02:56:19;3.65;;;1.90;;
25870;SDS011;13689;48.590;7.752;2022-09-23T02:58:45;2.45;;;2.15;;
25870;SDS011;13689;48.590;7.752;2022-09-23T03:07:03;2.22;;;2.00;;
25870;SDS011;13689;48.590;7.752;2022-09-23T03:18:39;2.38;;;1.75;;
25870;SDS011;13689;48.590;7.752;2022-09-23T03:21:14;2.20;;;1.65;;
25870;SDS011;13689;48.590;7.752;2022-09-23T03:23:47;3.00;;;1.92;;
25870;SDS011;13689;48.590;7.752;2022-09-23T03:26:17;2.35;;;1.67;;
25870;SDS011;13689;48.590;7.752;2022-09-23T03:28:46;3.97;;;2.03;;
25870;SDS011;13689;48.590;7.752;2022-09-23T03:31:14;3.28;;;2.22;;
25870;SDS011;13689;48.590;7.752;2022-09-23T03:33:41;3.50;;;1.80;;
25870;SDS011;13689;48.590;7.752;2022-09-23T03:36:13;4.25;;;2.08;;
25870;SDS011;13689;48.590;7.752;2022-09-23T03:39:04;6.88;;;2.00;;
25870;SDS011;13689;48.590;7.752;2022-09-23T03:41:39;3.67;;;2.00;;
25870;SDS011;13689;48.590;7.752;2022-09-23T03:44:09;6.38;;;2.13;;
25870;SDS011;13689;48.590;7.752;2022-09-23T03:46:35;3.88;;;2.30;;
25870;SDS011;13689;48.590;7.752;2022-09-23T03:49:09;4.25;;;1.90;;
25870;SDS011;13689;48.590;7.752;2022-09-23T03:51:51;4.22;;;2.05;;
25870;SDS011;13689;48.590;7.752;2022-09-23T03:54:18;5.43;;;2.40;;
25870;SDS011;13689;48.590;7.752;2022-09-23T03:56:44;4.30;;;2.47;;
25870;SDS011;13689;48.590;7.752;2022-09-23T03:59:12;3.10;;;2.40;;
25870;SDS011;13689;48.590;7.752;2022-09-23T04:01:41;5.10;;;2.50;;
25870;SDS011;13689;48.590;7.752;2022-09-23T04:04:07;2.63;;;1.85;;
25870;SDS011;13689;48.590;7.752;2022-09-23T04:06:34;3.83;;;2.25;;
25870;SDS011;13689;48.590;7.752;2022-09-23T04:09:00;3.15;;;2.33;;
25870;SDS011;13689;48.590;7.752;2022-09-23T04:11:26;2.55;;;2.28;;
25870;SDS011;13689;48.590;7.752;2022-09-23T04:13:54;5.55;;;2.80;;
25870;SDS011;13689;48.590;7.752;2022-09-23T04:16:20;6.10;;;2.83;;
25870;SDS011;13689;48.590;7.752;2022-09-23T04:18:47;2.83;;;2.05;;
25870;SDS011;13689;48.590;7.752;2022-09-23T04:21:13;4.68;;;2.55;;
25870;SDS011;13689;48.590;7.752;2022-09-23T04:23:39;6.18;;;2.33;;
25870;SDS011;13689;48.590;7.752;2022-09-23T04:26:05;6.07;;;2.28;;
25870;SDS011;13689;48.590;7.752;2022-09-23T04:28:31;3.47;;;2.60;;
25870;SDS011;13689;48.590;7.752;2022-09-23T04:30:57;2.97;;;2.47;;
25870;SDS011;13689;48.590;7.752;2022-09-23T04:33:23;4.13;;;2.83;;
25870;SDS011;13689;48.590;7.752;2022-09-23T04:35:49;14.80;;;4.68;;
25870;SDS011;13689;48.590;7.752;2022-09-23T04:38:16;9.88;;;3.40;;
25870;SDS011;13689;48.590;7.752;2022-09-23T04:40:42;6.88;;;2.70;;
25870;SDS011;13689;48.590;7.752;2022-09-23T04:43:08;6.88;;;2.88;;
25870;SDS011;13689;48.590;7.752;2022-09-23T04:45:34;3.10;;;2.70;;
25870;SDS011;13689;48.590;7.752;2022-09-23T04:48:00;5.22;;;2.67;;
25870;SDS011;13689;48.590;7.752;2022-09-23T04:50:26;8.00;;;2.85;;
25870;SDS011;13689;48.590;7.752;2022-09-23T04:52:52;6.47;;;2.47;;
25870;SDS011;13689;48.590;7.752;2022-09-23T04:55:19;5.55;;;2.47;;
25870;SDS011;13689;48.590;7.752;2022-09-23T04:57:45;6.47;;;2.72;;
25870;SDS011;13689;48.590;7.752;2022-09-23T05:00:11;4.88;;;2.85;;
25870;SDS011;13689;48.590;7.752;2022-09-23T05:05:11;4.70;;;2.95;;
25870;SDS011;13689;48.590;7.752;2022-09-23T05:07:38;5.03;;;2.75;;
25870;SDS011;13689;48.590;7.752;2022-09-23T05:10:04;4.25;;;2.92;;
25870;SDS011;13689;48.590;7.752;2022-09-23T05:12:30;8.40;;;3.42;;
25870;SDS011;13689;48.590;7.752;2022-09-23T05:14:56;6.55;;;3.60;;
25870;SDS011;13689;48.590;7.752;2022-09-23T05:17:21;8.05;;;3.70;;
25870;SDS011;13689;48.590;7.752;2022-09-23T05:19:48;4.85;;;2.70;;
25870;SDS011;13689;48.590;7.752;2022-09-23T05:22:13;8.15;;;3.13;;
25870;SDS011;13689;48.590;7.752;2022-09-23T05:24:39;7.10;;;3.30;;
25870;SDS011;13689;48.590;7.752;2022-09-23T05:27:04;5.53;;;3.65;;
25870;SDS011;13689;48.590;7.752;2022-09-23T05:29:31;5.13;;;3.72;;
25870;SDS011;13689;48.590;7.752;2022-09-23T05:31:57;7.10;;;3.50;;
25870;SDS011;13689;48.590;7.752;2022-09-23T05:34:23;9.73;;;3.97;;
25870;SDS011;13689;48.590;7.752;2022-09-23T05:36:49;5.15;;;3.63;;
25870;SDS011;13689;48.590;7.752;2022-09-23T05:39:14;5.32;;;3.90;;
25870;SDS011;13689;48.590;7.752;2022-09-23T05:41:40;5.95;;;3.92;;
25870;SDS011;13689;48.590;7.752;2022-09-23T05:44:06;7.68;;;3.65;;
25870;SDS011;13689;48.590;7.752;2022-09-23T05:46:32;6.05;;;3.60;;
25870;SDS011;13689;48.590;7.752;2022-09-23T05:48:59;4.75;;;3.55;;
25870;SDS011;13689;48.590;7.752;2022-09-23T05:51:26;7.00;;;3.92;;
25870;SDS011;13689;48.590;7.752;2022-09-23T05:53:53;7.22;;;4.20;;
25870;SDS011;13689;48.590;7.752;2022-09-23T05:56:22;4.00;;;3.60;;
25870;SDS011;13689;48.590;7.752;2022-09-23T05:58:50;7.72;;;4.07;;
25870;SDS011;13689;48.590;7.752;2022-09-23T06:01:19;6.45;;;3.75;;
25870;SDS011;13689;48.590;7.752;2022-09-23T06:03:47;5.90;;;4.18;;
25870;SDS011;13689;48.590;7.752;2022-09-23T06:06:13;8.20;;;4.20;;
25870;SDS011;13689;48.590;7.752;2022-09-23T06:08:44;7.28;;;3.92;;
25870;SDS011;13689;48.590;7.752;2022-09-23T06:11:10;11.40;;;4.10;;
25870;SDS011;13689;48.590;7.752;2022-09-23T06:13:36;7.95;;;4.25;;
25870;SDS011;13689;48.590;7.752;2022-09-23T06:16:03;5.50;;;4.05;;
25870;SDS011;13689;48.590;7.752;2022-09-23T06:18:30;7.78;;;4.65;;
25870;SDS011;13689;48.590;7.752;2022-09-23T06:20:58;8.88;;;4.43;;
25870;SDS011;13689;48.590;7.752;2022-09-23T06:23:27;10.20;;;4.40;;
25870;SDS011;13689;48.590;7.752;2022-09-23T06:25:58;8.93;;;4.68;;
25870;SDS011;13689;48.590;7.752;2022-09-23T06:28:32;7.85;;;4.38;;
25870;SDS011;13689;48.590;7.752;2022-09-23T06:30:59;7.20;;;3.80;;
25870;SDS011;13689;48.590;7.752;2022-09-23T06:35:56;11.63;;;4.43;;
25870;SDS011;13689;48.590;7.752;2022-09-23T06:38:24;9.00;;;4.22;;
25870;SDS011;13689;48.590;7.752;2022-09-23T06:40:51;6.85;;;4.53;;
25870;SDS011;13689;48.590;7.752;2022-09-23T06:43:18;8.73;;;4.63;;
25870;SDS011;13689;48.590;7.752;2022-09-23T06:45:45;10.90;;;4.93;;
25870;SDS011;13689;48.590;7.752;2022-09-23T06:48:11;6.88;;;4.88;;
25870;SDS011;13689;48.590;7.752;2022-09-23T06:50:36;8.63;;;5.10;;
25870;SDS011;13689;48.590;7.752;2022-09-23T06:53:02;7.22;;;4.70;;
25870;SDS011;13689;48.590;7.752;2022-09-23T06:55:28;10.18;;;5.10;;
25870;SDS011;13689;48.590;7.752;2022-09-23T06:57:56;11.02;;;4.50;;
25870;SDS011;13689;48.590;7.752;2022-09-23T07:00:22;9.05;;;4.70;;
25870;SDS011;13689;48.590;7.752;2022-09-23T07:02:48;5.82;;;3.92;;
25870;SDS011;13689;48.590;7.752;2022-09-23T07:05:14;9.23;;;4.97;;
25870;SDS011;13689;48.590;7.752;2022-09-23T07:07:41;8.15;;;5.15;;
25870;SDS011;13689;48.590;7.752;2022-09-23T07:10:10;8.57;;;4.30;;
25870;SDS011;13689;48.590;7.752;2022-09-23T07:12:36;6.40;;;4.30;;
25870;SDS011;13689;48.590;7.752;2022-09-23T07:15:02;10.50;;;4.10;;
25870;SDS011;13689;48.590;7.752;2022-09-23T07:17:28;8.25;;;4.68;;
25870;SDS011;13689;48.590;7.752;2022-09-23T07:19:55;7.05;;;3.97;;
25870;SDS011;13689;48.590;7.752;2022-09-23T07:22:22;11.15;;;4.30;;
25870;SDS011;13689;48.590;7.752;2022-09-23T07:24:49;6.15;;;3.83;;
25870;SDS011;13689;48.590;7.752;2022-09-23T07:27:15;7.60;;;4.25;;
25870;SDS011;13689;48.590;7.752;2022-09-23T07:29:43;8.88;;;3.85;;
25870;SDS011;13689;48.590;7.752;2022-09-23T07:32:09;5.15;;;4.30;;
25870;SDS011;13689;48.590;7.752;2022-09-23T07:34:35;6.35;;;4.90;;
25870;SDS011;13689;48.590;7.752;2022-09-23T07:37:01;10.27;;;4.00;;
25870;SDS011;13689;48.590;7.752;2022-09-23T07:39:28;5.93;;;3.92;;
25870;SDS011;13689;48.590;7.752;2022-09-23T07:41:53;5.35;;;4.22;;
25870;SDS011;13689;48.590;7.752;2022-09-23T07:44:19;9.30;;;5.15;;
25870;SDS011;13689;48.590;7.752;2022-09-23T07:46:46;6.35;;;3.85;;
25870;SDS011;13689;48.590;7.752;2022-09-23T07:49:13;14.40;;;4.53;;
25870;SDS011;13689;48.590;7.752;2022-09-23T07:51:39;6.95;;;4.13;;
25870;SDS011;13689;48.590;7.752;2022-09-23T07:54:10;6.95;;;3.95;;
25870;SDS011;13689;48.590;7.752;2022-09-23T07:56:38;6.80;;;4.75;;
25870;SDS011;13689;48.590;7.752;2022-09-23T07:59:04;8.93;;;4.13;;
25870;SDS011;13689;48.590;7.752;2022-09-23T08:01:39;5.47;;;3.90;;
25870;SDS011;13689;48.590;7.752;2022-09-23T08:04:10;7.90;;;4.28;;
25870;SDS011;13689;48.590;7.752;2022-09-23T08:07:00;7.50;;;4.40;;
25870;SDS011;13689;48.590;7.752;2022-09-23T08:09:33;8.05;;;3.60;;
25870;SDS011;13689;48.590;7.752;2022-09-23T08:12:03;6.93;;;3.90;;
25870;SDS011;13689;48.590;7.752;2022-09-23T08:14:29;6.90;;;3.97;;
25870;SDS011;13689;48.590;7.752;2022-09-23T08:16:55;7.00;;;3.80;;
25870;SDS011;13689;48.590;7.752;2022-09-23T08:19:21;10.02;;;3.40;;
25870;SDS011;13689;48.590;7.752;2022-09-23T08:21:48;4.70;;;3.65;;
25870;SDS011;13689;48.590;7.752;2022-09-23T08:24:17;4.88;;;3.25;;
25870;SDS011;13689;48.590;7.752;2022-09-23T08:26:45;8.50;;;3.40;;
25870;SDS011;13689;48.590;7.752;2022-09-23T08:29:13;9.68;;;3.42;;
25870;SDS011;13689;48.590;7.752;2022-09-23T08:31:39;5.68;;;4.03;;
25870;SDS011;13689;48.590;7.752;2022-09-23T08:34:05;4.60;;;3.63;;
25870;SDS011;13689;48.590;7.752;2022-09-23T08:36:31;6.53;;;4.05;;
25870;SDS011;13689;48.590;7.752;2022-09-23T08:38:58;8.90;;;3.83;;
25870;SDS011;13689;48.590;7.752;2022-09-23T08:44:02;11.00;;;3.53;;
25870;SDS011;13689;48.590;7.752;2022-09-23T08:46:35;8.23;;;3.78;;
25870;SDS011;13689;48.590;7.752;2022-09-23T08:49:04;6.53;;;3.33;;
25870;SDS011;13689;48.590;7.752;2022-09-23T08:51:45;5.00;;;3.22;;
25870;SDS011;13689;48.590;7.752;2022-09-23T08:54:12;5.05;;;4.05;;
25870;SDS011;13689;48.590;7.752;2022-09-23T08:59:11;4.70;;;3.40;;
25870;SDS011;13689;48.590;7.752;2022-09-23T09:04:53;3.78;;;3.00;;
25870;SDS011;13689;48.590;7.752;2022-09-23T09:09:38;7.70;;;3.33;;
25870;SDS011;13689;48.590;7.752;2022-09-23T09:14:49;4.75;;;3.20;;
25870;SDS011;13689;48.590;7.752;2022-09-23T09:20:15;3.65;;;2.53;;
25870;SDS011;13689;48.590;7.752;2022-09-23T09:22:56;5.65;;;2.88;;
25870;SDS011;13689;48.590;7.752;2022-09-23T09:25:43;5.03;;;2.88;;
25870;SDS011;13689;48.590;7.752;2022-09-23T09:31:00;6.13;;;2.95;;
25870;SDS011;13689;48.590;7.752;2022-09-23T09:33:46;5.40;;;2.83;;
25870;SDS011;13689;48.590;7.752;2022-09-23T09:39:16;4.90;;;2.58;;
25870;SDS011;13689;48.590;7.752;2022-09-23T09:41:44;6.03;;;2.85;;
25870;SDS011;13689;48.590;7.752;2022-09-23T09:44:24;5.18;;;2.78;;
25870;SDS011;13689;48.590;7.752;2022-09-23T09:49:44;2.70;;;2.50;;
25870;SDS011;13689;48.590;7.752;2022-09-23T09:54:53;5.07;;;2.72;;
25870;SDS011;13689;48.590;7.752;2022-09-23T09:57:31;3.35;;;2.85;;
25870;SDS011;13689;48.590;7.752;2022-09-23T10:00:31;5.25;;;2.70;;
25870;SDS011;13689;48.590;7.752;2022-09-23T10:09:04;3.15;;;2.75;;
25870;SDS011;13689;48.590;7.752;2022-09-23T10:13:26;4.80;;;2.50;;
25870;SDS011;13689;48.590;7.752;2022-09-23T10:15:54;2.92;;;2.38;;
25870;SDS011;13689;48.590;7.752;2022-09-23T10:18:36;8.47;;;3.70;;
25870;SDS011;13689;48.590;7.752;2022-09-23T10:21:06;6.22;;;2.10;;
25870;SDS011;13689;48.590;7.752;2022-09-23T10:23:37;2.92;;;2.40;;
25870;SDS011;13689;48.590;7.752;2022-09-23T10:26:08;3.63;;;2.45;;
25870;SDS011;13689;48.590;7.752;2022-09-23T10:31:14;7.30;;;2.83;;
25870;SDS011;13689;48.590;7.752;2022-09-23T10:33:50;3.75;;;2.45;;
25870;SDS011;13689;48.590;7.752;2022-09-23T10:36:24;6.10;;;2.30;;
25870;SDS011;13689;48.590;7.752;2022-09-23T10:38:57;6.97;;;2.58;;
25870;SDS011;13689;48.590;7.752;2022-09-23T10:42:01;4.50;;;2.42;;
25870;SDS011;13689;48.590;7.752;2022-09-23T10:44:56;4.55;;;2.80;;
25870;SDS011;13689;48.590;7.752;2022-09-23T10:47:44;3.15;;;2.70;;
25870;SDS011;13689;48.590;7.752;2022-09-23T10:50:28;6.60;;;3.42;;
25870;SDS011;13689;48.590;7.752;2022-09-23T11:07:26;8.25;;;3.83;;
25870;SDS011;13689;48.590;7.752;2022-09-23T11:10:18;6.75;;;3.28;;
25870;SDS011;13689;48.590;7.752;2022-09-23T11:32:53;4.88;;;2.58;;
25870;SDS011;13689;48.590;7.752;2022-09-23T11:38:09;6.75;;;2.28;;
25870;SDS011;13689;48.590;7.752;2022-09-23T11:40:45;4.65;;;2.53;;
25870;SDS011;13689;48.590;7.752;2022-09-23T11:43:25;4.05;;;2.50;;
25870;SDS011;13689;48.590;7.752;2022-09-23T11:45:59;5.30;;;2.50;;
25870;SDS011;13689;48.590;7.752;2022-09-23T11:51:23;5.15;;;2.90;;
25870;SDS011;13689;48.590;7.752;2022-09-23T11:53:59;3.25;;;2.65;;
25870;SDS011;13689;48.590;7.752;2022-09-23T11:56:35;8.25;;;2.65;;
25870;SDS011;13689;48.590;7.752;2022-09-23T11:59:11;3.17;;;2.15;;
25870;SDS011;13689;48.590;7.752;2022-09-23T12:01:55;4.72;;;2.60;;
25870;SDS011;13689;48.590;7.752;2022-09-23T12:04:30;4.57;;;2.13;;
25870;SDS011;13689;48.590;7.752;2022-09-23T12:09:34;4.57;;;2.28;;
25870;SDS011;13689;48.590;7.752;2022-09-23T12:12:16;4.97;;;2.75;;
25870;SDS011;13689;48.590;7.752;2022-09-23T12:15:03;6.03;;;2.90;;
25870;SDS011;13689;48.590;7.752;2022-09-23T12:17:46;4.57;;;2.30;;
25870;SDS011;13689;48.590;7.752;2022-09-23T12:28:21;5.90;;;2.30;;
25870;SDS011;13689;48.590;7.752;2022-09-23T12:30:52;3.58;;;2.58;;
25870;SDS011;13689;48.590;7.752;2022-09-23T12:33:24;6.32;;;2.50;;
25870;SDS011;13689;48.590;7.752;2022-09-23T12:35:53;7.35;;;2.75;;
25870;SDS011;13689;48.590;7.752;2022-09-23T12:38:32;4.85;;;2.45;;
25870;SDS011;13689;48.590;7.752;2022-09-23T12:41:45;5.40;;;2.58;;
25870;SDS011;13689;48.590;7.752;2022-09-23T12:46:40;5.60;;;2.72;;
25870;SDS011;13689;48.590;7.752;2022-09-23T12:54:46;5.50;;;2.40;;
25870;SDS011;13689;48.590;7.752;2022-09-23T13:02:34;4.82;;;2.30;;
25870;SDS011;13689;48.590;7.752;2022-09-23T13:05:21;3.88;;;1.90;;
25870;SDS011;13689;48.590;7.752;2022-09-23T13:08:15;3.55;;;2.08;;
25870;SDS011;13689;48.590;7.752;2022-09-23T13:10:45;4.40;;;2.38;;
25870;SDS011;13689;48.590;7.752;2022-09-23T13:16:09;8.57;;;2.80;;
25870;SDS011;13689;48.590;7.752;2022-09-23T13:24:36;2.05;;;1.80;;
25870;SDS011;13689;48.590;7.752;2022-09-23T13:27:14;3.70;;;2.17;;
25870;SDS011;13689;48.590;7.752;2022-09-23T13:32:43;2.67;;;1.92;;
25870;SDS011;13689;48.590;7.752;2022-09-23T13:35:24;3.55;;;1.80;;
25870;SDS011;13689;48.590;7.752;2022-09-23T13:37:54;4.72;;;1.98;;
25870;SDS011;13689;48.590;7.752;2022-09-23T13:45:25;6.00;;;2.38;;
25870;SDS011;13689;48.590;7.752;2022-09-23T13:47:53;2.70;;;2.40;;
25870;SDS011;13689;48.590;7.752;2022-09-23T13:50:23;3.03;;;2.22;;
25870;SDS011;13689;48.590;7.752;2022-09-23T13:52:51;4.82;;;2.75;;
25870;SDS011;13689;48.590;7.752;2022-09-23T13:55:25;8.40;;;2.00;;
25870;SDS011;13689;48.590;7.752;2022-09-23T13:57:57;4.05;;;2.50;;
25870;SDS011;13689;48.590;7.752;2022-09-23T14:00:24;5.25;;;2.15;;
25870;SDS011;13689;48.590;7.752;2022-09-23T14:02:50;3.03;;;1.98;;
25870;SDS011;13689;48.590;7.752;2022-09-23T14:05:23;5.72;;;2.20;;
25870;SDS011;13689;48.590;7.752;2022-09-23T14:07:51;3.33;;;2.22;;
25870;SDS011;13689;48.590;7.752;2022-09-23T14:10:19;3.40;;;2.13;;
25870;SDS011;13689;48.590;7.752;2022-09-23T14:12:47;6.18;;;1.98;;
25870;SDS011;13689;48.590;7.752;2022-09-23T14:15:16;2.38;;;2.08;;
25870;SDS011;13689;48.590;7.752;2022-09-23T14:17:46;2.63;;;2.00;;
25870;SDS011;13689;48.590;7.752;2022-09-23T14:20:16;8.38;;;2.60;;
25870;SDS011;13689;48.590;7.752;2022-09-23T14:22:44;3.95;;;2.10;;
25870;SDS011;13689;48.590;7.752;2022-09-23T14:25:14;3.00;;;1.98;;
25870;SDS011;13689;48.590;7.752;2022-09-23T14:27:41;5.43;;;2.63;;
25870;SDS011;13689;48.590;7.752;2022-09-23T14:30:15;2.58;;;2.38;;
25870;SDS011;13689;48.590;7.752;2022-09-23T14:32:44;3.33;;;2.08;;
25870;SDS011;13689;48.590;7.752;2022-09-23T14:35:16;3.53;;;1.75;;
25870;SDS011;13689;48.590;7.752;2022-09-23T14:37:52;6.88;;;2.30;;
25870;SDS011;13689;48.590;7.752;2022-09-23T14:43:39;5.13;;;2.03;;
25870;SDS011;13689;48.590;7.752;2022-09-23T14:46:22;6.15;;;2.00;;
25870;SDS011;13689;48.590;7.752;2022-09-23T14:48:57;3.67;;;2.30;;
25870;SDS011;13689;48.590;7.752;2022-09-23T14:56:59;3.30;;;2.05;;
25870;SDS011;13689;48.590;7.752;2022-09-23T14:59:47;5.57;;;1.92;;
25870;SDS011;13689;48.590;7.752;2022-09-23T15:02:26;3.10;;;1.92;;
25870;SDS011;13689;48.590;7.752;2022-09-23T15:05:05;3.95;;;2.03;;
25870;SDS011;13689;48.590;7.752;2022-09-23T15:07:34;3.27;;;1.97;;
25870;SDS011;13689;48.590;7.752;2022-09-23T15:12:28;5.70;;;2.40;;
25870;SDS011;13689;48.590;7.752;2022-09-23T15:14:54;2.75;;;1.67;;
25870;SDS011;13689;48.590;7.752;2022-09-23T15:17:26;7.00;;;1.90;;
25870;SDS011;13689;48.590;7.752;2022-09-23T15:20:01;2.13;;;1.83;;
25870;SDS011;13689;48.590;7.752;2022-09-23T15:22:29;4.78;;;2.40;;
25870;SDS011;13689;48.590;7.752;2022-09-23T15:25:07;6.18;;;2.15;;
25870;SDS011;13689;48.590;7.752;2022-09-23T15:27:40;4.53;;;1.90;;
25870;SDS011;13689;48.590;7.752;2022-09-23T15:30:16;10.02;;;2.50;;
25870;SDS011;13689;48.590;7.752;2022-09-23T15:32:43;3.88;;;2.20;;
25870;SDS011;13689;48.590;7.752;2022-09-23T15:35:10;5.75;;;2.53;;
25870;SDS011;13689;48.590;7.752;2022-09-23T15:37:41;6.95;;;2.90;;
25870;SDS011;13689;48.590;7.752;2022-09-23T15:40:13;5.95;;;2.90;;
25870;SDS011;13689;48.590;7.752;2022-09-23T15:42:46;6.18;;;3.15;;
25870;SDS011;13689;48.590;7.752;2022-09-23T15:45:15;3.88;;;2.75;;
25870;SDS011;13689;48.590;7.752;2022-09-23T15:47:44;10.82;;;2.72;;
25870;SDS011;13689;48.590;7.752;2022-09-23T15:50:11;7.45;;;2.60;;
25870;SDS011;13689;48.590;7.752;2022-09-23T15:52:37;8.85;;;2.58;;
25870;SDS011;13689;48.590;7.752;2022-09-23T15:55:13;7.28;;;2.40;;
25870;SDS011;13689;48.590;7.752;2022-09-23T15:57:41;5.82;;;2.20;;
25870;SDS011;13689;48.590;7.752;2022-09-23T16:00:07;2.65;;;1.80;;
25870;SDS011;13689;48.590;7.752;2022-09-23T16:02:34;5.47;;;2.05;;
25870;SDS011;13689;48.590;7.752;2022-09-23T16:05:00;2.55;;;2.13;;
25870;SDS011;13689;48.590;7.752;2022-09-23T16:07:26;5.55;;;2.33;;
25870;SDS011;13689;48.590;7.752;2022-09-23T16:09:52;6.53;;;2.20;;
25870;SDS011;13689;48.590;7.752;2022-09-23T16:12:18;5.90;;;1.98;;
25870;SDS011;13689;48.590;7.752;2022-09-23T16:14:44;7.68;;;2.30;;
25870;SDS011;13689;48.590;7.752;2022-09-23T16:17:10;5.10;;;1.80;;
25870;SDS011;13689;48.590;7.752;2022-09-23T16:19:37;16.00;;;6.90;;
25870;SDS011;13689;48.590;7.752;2022-09-23T16:22:03;2.78;;;1.88;;
25870;SDS011;13689;48.590;7.752;2022-09-23T16:24:29;10.13;;;2.38;;
25870;SDS011;13689;48.590;7.752;2022-09-23T16:26:55;6.53;;;2.35;;
25870;SDS011;13689;48.590;7.752;2022-09-23T16:29:24;8.35;;;2.05;;
25870;SDS011;13689;48.590;7.752;2022-09-23T16:31:51;10.65;;;2.10;;
25870;SDS011;13689;48.590;7.752;2022-09-23T16:34:17;7.95;;;2.25;;
25870;SDS011;13689;48.590;7.752;2022-09-23T16:36:44;12.20;;;4.20;;
25870;SDS011;13689;48.590;7.752;2022-09-23T16:39:11;7.68;;;2.20;;
25870;SDS011;13689;48.590;7.752;2022-09-23T16:41:37;5.78;;;2.38;;
25870;SDS011;13689;48.590;7.752;2022-09-23T16:44:04;3.42;;;2.45;;
25870;SDS011;13689;48.590;7.752;2022-09-23T16:46:32;5.13;;;2.30;;
25870;SDS011;13689;48.590;7.752;2022-09-23T16:48:58;8.20;;;2.50;;
25870;SDS011;13689;48.590;7.752;2022-09-23T16:51:31;3.50;;;2.20;;
25870;SDS011;13689;48.590;7.752;2022-09-23T16:54:09;4.25;;;2.60;;
25870;SDS011;13689;48.590;7.752;2022-09-23T16:56:37;9.73;;;2.70;;
25870;SDS011;13689;48.590;7.752;2022-09-23T16:59:13;3.97;;;2.40;;
25870;SDS011;13689;48.590;7.752;2022-09-23T17:01:40;3.67;;;2.67;;
25870;SDS011;13689;48.590;7.752;2022-09-23T17:04:24;3.65;;;2.65;;
25870;SDS011;13689;48.590;7.752;2022-09-23T17:06:51;3.35;;;2.60;;
25870;SDS011;13689;48.590;7.752;2022-09-23T17:09:18;4.95;;;2.50;;
25870;SDS011;13689;48.590;7.752;2022-09-23T17:11:46;9.55;;;3.00;;
25870;SDS011;13689;48.590;7.752;2022-09-23T17:14:35;5.88;;;3.30;;
25870;SDS011;13689;48.590;7.752;2022-09-23T17:17:01;6.93;;;3.33;;
25870;SDS011;13689;48.590;7.752;2022-09-23T17:19:26;7.32;;;3.83;;
25870;SDS011;13689;48.590;7.752;2022-09-23T17:21:52;10.80;;;3.97;;
25870;SDS011;13689;48.590;7.752;2022-09-23T17:24:18;7.00;;;3.72;;
25870;SDS011;13689;48.590;7.752;2022-09-23T17:26:43;5.45;;;3.47;;
25870;SDS011;13689;48.590;7.752;2022-09-23T17:29:10;8.23;;;3.58;;
25870;SDS011;13689;48.590;7.752;2022-09-23T17:31:36;10.48;;;3.78;;
25870;SDS011;13689;48.590;7.752;2022-09-23T17:34:03;15.45;;;9.68;;
25870;SDS011;13689;48.590;7.752;2022-09-23T17:36:28;6.22;;;5.10;;
25870;SDS011;13689;48.590;7.752;2022-09-23T17:38:54;10.50;;;5.50;;
25870;SDS011;13689;48.590;7.752;2022-09-23T17:41:20;7.43;;;3.60;;
25870;SDS011;13689;48.590;7.752;2022-09-23T17:43:46;5.32;;;3.10;;
25870;SDS011;13689;48.590;7.752;2022-09-23T17:46:12;8.10;;;5.68;;
25870;SDS011;13689;48.590;7.752;2022-09-23T17:48:41;5.65;;;3.83;;
25870;SDS011;13689;48.590;7.752;2022-09-23T17:51:09;4.25;;;3.33;;
25870;SDS011;13689;48.590;7.752;2022-09-23T17:53:41;8.60;;;3.17;;
25870;SDS011;13689;48.590;7.752;2022-09-23T17:56:16;5.88;;;2.75;;
25870;SDS011;13689;48.590;7.752;2022-09-23T17:58:49;11.52;;;5.68;;
25870;SDS011;13689;48.590;7.752;2022-09-23T18:01:18;8.93;;;4.32;;
25870;SDS011;13689;48.590;7.752;2022-09-23T18:03:46;10.85;;;5.10;;
25870;SDS011;13689;48.590;7.752;2022-09-23T18:06:13;16.33;;;9.10;;